createdAt,value
2019-05-29T00:00:16.541Z,0.50
2019-05-29T00:02:46.340Z,0.40
2019-05-29T00:05:16.144Z,0.50
2019-05-29T00:07:45.929Z,0.40
2019-05-29T00:10:18.359Z,0.43
2019-05-29T00:12:48.329Z,0.50
2019-05-29T00:15:19.716Z,0.40
2019-05-29T00:17:49.474Z,0.30
2019-05-29T00:20:19.445Z,0.50
2019-05-29T00:22:49.218Z,0.40
2019-05-29T00:25:19.060Z,0.40
2019-05-29T00:27:48.937Z,0.47
2019-05-29T00:30:18.737Z,0.50
2019-05-29T00:32:48.437Z,0.40
2019-05-29T00:35:18.242Z,0.30
2019-05-29T00:37:48.048Z,0.40
2019-05-29T00:40:18.023Z,0.60
2019-05-29T00:42:47.791Z,0.50
2019-05-29T00:45:17.785Z,0.57
2019-05-29T00:47:47.577Z,0.47
2019-05-29T00:50:17.619Z,0.50
2019-05-29T00:52:47.455Z,0.60
2019-05-29T00:55:18.496Z,0.60
2019-05-29T00:57:49.190Z,0.60
2019-05-29T01:00:19.579Z,0.63
2019-05-29T01:02:49.499Z,0.53
2019-05-29T01:05:20.176Z,0.70
2019-05-29T01:07:50.092Z,0.60
2019-05-29T01:10:20.851Z,0.50
2019-05-29T01:12:50.683Z,0.50
2019-05-29T01:15:21.522Z,0.60
2019-05-29T01:17:51.382Z,0.67
2019-05-29T01:20:22.014Z,0.50
2019-05-29T01:22:52.076Z,0.70
2019-05-29T01:25:22.699Z,0.50
2019-05-29T01:27:52.548Z,0.47
2019-05-29T01:30:23.404Z,0.50
2019-05-29T01:32:53.151Z,0.50
2019-05-29T01:35:24.051Z,0.60
2019-05-29T01:37:53.988Z,0.50
2019-05-29T01:40:26.453Z,0.50
2019-05-29T01:42:55.182Z,0.50
2019-05-29T01:45:24.950Z,0.40
2019-05-29T01:47:54.675Z,0.40
2019-05-29T01:50:24.430Z,0.30
2019-05-29T01:52:54.155Z,0.40
2019-05-29T01:55:23.896Z,0.40
2019-05-29T01:57:54.664Z,0.40
2019-05-29T02:00:24.515Z,0.30
2019-05-29T02:02:54.403Z,0.40
2019-05-29T02:05:25.192Z,0.40
2019-05-29T02:07:54.935Z,0.43
2019-05-29T02:10:37.057Z,0.40
2019-05-29T02:13:06.829Z,0.47
2019-05-29T02:15:36.539Z,0.57
2019-05-29T02:18:06.258Z,0.43
2019-05-29T02:20:36.000Z,0.40
2019-05-29T02:23:05.769Z,0.50
2019-05-29T02:25:35.522Z,0.40
2019-05-29T02:28:05.293Z,0.40
2019-05-29T02:30:35.315Z,0.63
2019-05-29T02:33:05.121Z,0.50
2019-05-29T02:35:34.943Z,0.40
2019-05-29T02:38:04.721Z,0.50
2019-05-29T02:40:34.547Z,0.50
2019-05-29T02:43:04.295Z,0.57
2019-05-29T02:45:53.222Z,0.57
2019-05-29T02:48:05.401Z,0.70
2019-05-29T02:50:35.090Z,0.60
2019-05-29T02:53:04.833Z,0.40
2019-05-29T02:55:34.631Z,0.40
2019-05-29T02:58:04.300Z,0.43
2019-05-29T03:00:52.567Z,0.50
2019-05-29T03:03:26.762Z,0.50
2019-05-29T03:05:57.261Z,0.40
2019-05-29T03:08:29.354Z,0.30
2019-05-29T03:10:58.394Z,0.57
2019-05-29T03:13:29.770Z,0.60
2019-05-29T03:16:10.560Z,0.60
2019-05-29T03:18:32.592Z,0.40
2019-05-29T03:21:02.414Z,0.80
2019-05-29T03:23:33.981Z,0.63
2019-05-29T03:26:03.601Z,0.60
2019-05-29T03:28:35.067Z,0.50
2019-05-29T03:31:04.696Z,0.60
2019-05-29T03:33:40.933Z,0.50
2019-05-29T03:36:06.181Z,0.43
2019-05-29T03:38:35.991Z,0.40
2019-05-29T03:41:05.853Z,0.47
2019-05-29T03:43:36.187Z,0.40
2019-05-29T03:46:06.209Z,0.50
2019-05-29T03:48:36.057Z,0.70
2019-05-29T03:51:05.732Z,0.70
2019-05-29T03:53:36.732Z,0.60
2019-05-29T03:56:06.809Z,0.50
2019-05-29T03:58:37.717Z,0.80
2019-05-29T04:01:07.860Z,0.50
2019-05-29T04:03:38.298Z,0.43
2019-05-29T04:06:08.311Z,0.50
2019-05-29T04:08:38.625Z,0.50
2019-05-29T04:11:08.668Z,0.50
2019-05-29T04:13:39.133Z,0.60
2019-05-29T04:16:11.124Z,0.60
2019-05-29T04:18:41.552Z,0.60
2019-05-29T04:21:11.722Z,0.63
2019-05-29T04:23:43.292Z,0.50
2019-05-29T04:26:16.158Z,0.50
2019-05-29T04:28:47.841Z,0.47
2019-05-29T04:31:17.678Z,0.53
2019-05-29T04:33:47.426Z,0.60
2019-05-29T04:36:17.207Z,0.50
2019-05-29T04:38:47.015Z,0.50
2019-05-29T04:41:16.760Z,0.60
2019-05-29T04:43:46.569Z,0.43
2019-05-29T04:46:16.302Z,0.50
2019-05-29T04:48:46.291Z,0.47
2019-05-29T04:51:17.021Z,0.50
2019-05-29T04:53:46.794Z,0.50
2019-05-29T04:56:16.637Z,0.43
2019-05-29T04:58:46.398Z,0.40
2019-05-29T05:01:29.003Z,0.40
2019-05-29T05:03:58.849Z,0.43
2019-05-29T05:06:29.124Z,0.60
2019-05-29T05:08:58.987Z,0.50
2019-05-29T05:11:29.392Z,0.50
2019-05-29T05:14:01.703Z,0.60
2019-05-29T05:16:31.649Z,0.43
2019-05-29T05:19:01.549Z,0.60
2019-05-29T05:21:31.981Z,0.50
2019-05-29T05:24:01.876Z,0.60
2019-05-29T05:26:32.144Z,0.33
2019-05-29T05:29:01.933Z,0.50
2019-05-29T05:31:32.369Z,1.40
2019-05-29T05:34:02.170Z,0.70
2019-05-29T05:36:32.676Z,0.43
2019-05-29T05:39:02.412Z,0.70
2019-05-29T05:41:32.723Z,0.70
2019-05-29T05:44:02.480Z,0.47
2019-05-29T05:46:32.961Z,0.50
2019-05-29T05:49:03.038Z,0.47
2019-05-29T05:51:33.494Z,0.50
2019-05-29T05:54:03.664Z,0.50
2019-05-29T05:56:35.530Z,0.50
2019-05-29T05:59:05.526Z,0.50
2019-05-29T06:01:37.847Z,0.50
2019-05-29T06:04:07.665Z,0.60
2019-05-29T06:06:38.125Z,0.40
2019-05-29T06:09:08.644Z,0.60
2019-05-29T06:11:38.392Z,0.50
2019-05-29T06:14:08.181Z,0.80
2019-05-29T06:16:38.650Z,0.50
2019-05-29T06:19:08.487Z,0.70
2019-05-29T06:21:38.817Z,0.47
2019-05-29T06:24:08.650Z,0.50
2019-05-29T06:26:38.973Z,0.57
2019-05-29T06:29:08.896Z,0.63
2019-05-29T06:31:39.420Z,0.50
2019-05-29T06:34:09.234Z,0.47
2019-05-29T06:36:39.637Z,0.63
2019-05-29T06:39:09.460Z,0.50
2019-05-29T06:41:40.129Z,0.50
2019-05-29T06:44:10.072Z,0.80
2019-05-29T06:46:40.440Z,0.60
2019-05-29T06:49:10.364Z,0.70
2019-05-29T06:51:41.350Z,0.40
2019-05-29T06:54:11.334Z,0.40
2019-05-29T06:56:41.746Z,0.77
2019-05-29T06:59:11.615Z,0.70
2019-05-29T07:01:41.761Z,0.50
2019-05-29T07:04:12.556Z,0.47
2019-05-29T07:06:42.714Z,0.60
2019-05-29T07:09:12.576Z,0.70
2019-05-29T07:11:43.488Z,0.60
2019-05-29T07:14:14.475Z,0.60
2019-05-29T07:16:55.139Z,0.47
2019-05-29T07:19:26.471Z,0.67
2019-05-29T07:21:47.310Z,0.53
2019-05-29T07:24:17.576Z,0.60
2019-05-29T07:26:47.330Z,0.70
2019-05-29T07:29:17.158Z,0.57
2019-05-29T07:31:47.267Z,0.50
2019-05-29T07:34:17.144Z,0.57
2019-05-29T07:36:48.235Z,0.63
2019-05-29T07:39:18.191Z,0.60
2019-05-29T07:41:47.989Z,0.57
2019-05-29T07:44:17.749Z,0.50
2019-05-29T07:46:48.901Z,0.53
2019-05-29T07:49:19.811Z,0.77
2019-05-29T07:51:49.619Z,0.60
2019-05-29T07:54:19.440Z,0.80
2019-05-29T07:56:49.182Z,0.80
2019-05-29T07:59:18.986Z,0.53
2019-05-29T08:01:49.266Z,0.77
2019-05-29T08:04:19.209Z,0.67
2019-05-29T08:06:54.194Z,0.63
2019-05-29T08:09:20.395Z,0.70
2019-05-29T08:11:50.328Z,0.70
2019-05-29T08:14:21.128Z,0.90
2019-05-29T08:16:50.917Z,0.80
2019-05-29T08:19:20.689Z,1.00
2019-05-29T08:21:50.684Z,0.90
2019-05-29T08:24:24.615Z,1.33
2019-05-29T08:26:51.785Z,1.20
2019-05-29T08:29:21.497Z,1.63
2019-05-29T08:31:53.110Z,1.00
2019-05-29T08:34:22.914Z,0.70
2019-05-29T08:37:04.812Z,0.93
2019-05-29T08:39:35.901Z,1.03
2019-05-29T08:42:21.320Z,0.77
2019-05-29T08:44:29.562Z,0.83
2019-05-29T08:47:09.670Z,1.00
2019-05-29T08:49:30.681Z,0.87
2019-05-29T08:52:11.186Z,0.90
2019-05-29T08:54:31.947Z,1.00
2019-05-29T08:57:01.636Z,0.77
2019-05-29T08:59:31.337Z,1.20
2019-05-29T09:02:01.065Z,0.90
2019-05-29T09:04:30.773Z,1.00
2019-05-29T09:07:00.537Z,0.70
2019-05-29T09:09:30.323Z,0.87
2019-05-29T09:12:00.171Z,0.90
2019-05-29T09:14:30.095Z,0.70
2019-05-29T09:16:59.827Z,0.80
2019-05-29T09:19:29.607Z,0.88
2019-05-29T09:21:59.520Z,1.03
2019-05-29T09:24:29.404Z,1.00
2019-05-29T09:26:59.158Z,0.80
2019-05-29T09:29:28.952Z,1.00
2019-05-29T09:31:58.815Z,0.53
2019-05-29T09:34:28.602Z,1.00
2019-05-29T09:36:58.357Z,0.80
2019-05-29T09:39:28.124Z,0.70
2019-05-29T09:41:58.141Z,0.90
2019-05-29T09:44:38.042Z,0.80
2019-05-29T09:47:00.438Z,0.90
2019-05-29T09:49:30.189Z,0.80
2019-05-29T09:52:00.009Z,1.07
2019-05-29T09:54:29.889Z,0.82
2019-05-29T09:57:01.077Z,0.88
2019-05-29T09:59:31.650Z,0.80
2019-05-29T10:02:07.376Z,0.70
2019-05-29T10:04:32.820Z,1.02
2019-05-29T10:07:04.511Z,0.90
2019-05-29T10:09:34.166Z,1.00
2019-05-29T10:12:06.842Z,0.90
2019-05-29T10:14:35.662Z,1.00
2019-05-29T10:17:11.106Z,0.70
2019-05-29T10:19:36.890Z,1.30
2019-05-29T10:22:06.617Z,0.90
2019-05-29T10:24:37.551Z,0.95
2019-05-29T10:27:07.327Z,0.95
2019-05-29T10:29:37.111Z,0.70
2019-05-29T10:32:06.803Z,0.65
2019-05-29T10:34:36.631Z,0.90
2019-05-29T10:37:06.405Z,0.75
2019-05-29T10:39:36.201Z,0.88
2019-05-29T10:42:05.966Z,1.05
2019-05-29T10:44:35.756Z,0.80
2019-05-29T10:47:05.615Z,1.00
2019-05-29T10:49:35.264Z,0.78
2019-05-29T10:52:16.088Z,1.10
2019-05-29T10:54:39.296Z,1.10
2019-05-29T10:57:08.990Z,0.82
2019-05-29T10:59:38.726Z,1.02
2019-05-29T11:02:08.928Z,0.88
2019-05-29T11:04:38.664Z,0.90
2019-05-29T11:07:09.415Z,1.20
2019-05-29T11:09:44.487Z,1.10
2019-05-29T11:12:10.647Z,1.40
2019-05-29T11:14:40.468Z,1.70
2019-05-29T11:17:10.267Z,1.25
2019-05-29T11:19:40.116Z,1.30
2019-05-29T11:22:25.130Z,1.80
2019-05-29T11:24:41.159Z,1.20
2019-05-29T11:27:10.904Z,1.50
2019-05-29T11:29:40.762Z,1.50
2019-05-29T11:32:10.563Z,1.12
2019-05-29T11:34:40.423Z,1.37
2019-05-29T11:37:10.223Z,1.67
2019-05-29T11:39:40.119Z,1.70
2019-05-29T11:42:26.061Z,2.15
2019-05-29T11:44:41.292Z,2.10
2019-05-29T11:47:11.042Z,1.80
2019-05-29T11:49:40.908Z,2.12
2019-05-29T11:52:23.804Z,2.02
2019-05-29T11:54:41.996Z,2.27
2019-05-29T11:57:11.768Z,1.95
2019-05-29T11:59:41.645Z,2.35
2019-05-29T12:02:11.489Z,2.15
2019-05-29T12:04:41.272Z,1.80
2019-05-29T12:07:11.129Z,2.42
2019-05-29T12:09:40.939Z,2.45
2019-05-29T12:12:10.752Z,1.60
2019-05-29T12:14:59.088Z,2.27
2019-05-29T12:17:11.998Z,2.45
2019-05-29T12:19:41.757Z,2.58
2019-05-29T12:22:11.554Z,2.25
2019-05-29T12:24:41.339Z,2.00
2019-05-29T12:27:11.145Z,2.00
2019-05-29T12:29:40.950Z,2.27
2019-05-29T12:32:12.131Z,1.55
2019-05-29T12:34:53.044Z,1.80
2019-05-29T12:37:13.777Z,2.42
2019-05-29T12:39:43.631Z,2.40
2019-05-29T12:42:13.438Z,2.22
2019-05-29T12:44:43.236Z,2.27
2019-05-29T12:47:13.015Z,1.80
2019-05-29T12:49:42.732Z,1.60
2019-05-29T12:52:12.607Z,1.90
2019-05-29T12:54:42.453Z,1.75
2019-05-29T12:57:12.147Z,1.90
2019-05-29T12:59:43.406Z,2.40
2019-05-29T13:02:13.388Z,1.92
2019-05-29T13:05:06.324Z,1.90
2019-05-29T13:07:14.602Z,1.98
2019-05-29T13:09:44.415Z,1.92
2019-05-29T13:12:14.208Z,1.90
2019-05-29T13:14:44.027Z,2.12
2019-05-29T13:17:13.833Z,2.42
2019-05-29T13:19:43.605Z,2.80
2019-05-29T13:22:13.395Z,3.22
2019-05-29T13:24:43.147Z,1.90
2019-05-29T13:27:12.926Z,2.40
2019-05-29T13:29:42.724Z,2.40
2019-05-29T13:32:12.531Z,2.55
2019-05-29T13:34:42.305Z,2.72
2019-05-29T13:37:12.057Z,3.52
2019-05-29T13:39:41.881Z,2.30
2019-05-29T13:42:12.208Z,2.00
2019-05-29T13:44:43.559Z,2.40
2019-05-29T13:47:14.193Z,2.75
2019-05-29T13:49:43.953Z,2.37
2019-05-29T13:52:13.747Z,2.42
2019-05-29T13:54:43.527Z,2.58
2019-05-29T13:57:13.282Z,2.40
2019-05-29T13:59:43.076Z,2.17
2019-05-29T14:02:12.968Z,2.60
2019-05-29T14:04:42.780Z,1.82
2019-05-29T14:07:12.575Z,1.82
2019-05-29T14:09:42.391Z,2.10
2019-05-29T14:12:12.184Z,2.55
2019-05-29T14:14:42.069Z,2.67
2019-05-29T14:17:12.882Z,2.22
2019-05-29T14:19:42.765Z,2.87
2019-05-29T14:22:14.598Z,2.25
2019-05-29T14:24:43.976Z,1.92
2019-05-29T14:27:13.787Z,2.30
2019-05-29T14:29:43.595Z,2.80
2019-05-29T14:32:13.506Z,2.10
2019-05-29T14:34:43.309Z,1.92
2019-05-29T14:37:13.205Z,2.10
2019-05-29T14:39:43.067Z,2.00
2019-05-29T14:42:12.869Z,2.35
2019-05-29T14:44:42.675Z,2.08
2019-05-29T14:47:13.459Z,2.40
2019-05-29T14:49:43.326Z,1.87
2019-05-29T14:52:14.206Z,2.00
2019-05-29T14:54:44.169Z,2.92
2019-05-29T14:57:24.698Z,2.42
2019-05-29T14:59:45.394Z,3.30
2019-05-29T15:02:21.746Z,2.47
2019-05-29T15:04:46.685Z,3.42
2019-05-29T15:07:16.529Z,2.70
2019-05-29T15:09:46.308Z,2.35
2019-05-29T15:12:16.107Z,2.37
2019-05-29T15:14:45.836Z,2.10
2019-05-29T15:17:16.063Z,2.00
2019-05-29T15:19:46.016Z,1.92
2019-05-29T15:22:16.146Z,1.67
2019-05-29T15:25:01.411Z,2.15
2019-05-29T15:27:17.610Z,1.87
2019-05-29T15:29:47.460Z,2.02
2019-05-29T15:32:17.333Z,1.87
2019-05-29T15:34:47.263Z,2.05
2019-05-29T15:37:18.789Z,1.57
2019-05-29T15:39:48.599Z,1.95
2019-05-29T15:42:18.350Z,1.72
2019-05-29T15:44:49.170Z,1.85
2019-05-29T15:47:19.051Z,2.15
2019-05-29T15:49:49.251Z,2.72
2019-05-29T15:52:19.095Z,2.20
2019-05-29T15:54:48.836Z,2.35
2019-05-29T15:57:18.633Z,2.25
2019-05-29T15:59:48.420Z,1.95
2019-05-29T16:02:18.244Z,2.30
2019-05-29T16:04:47.918Z,2.02
2019-05-29T16:07:18.262Z,2.12
2019-05-29T16:09:48.564Z,2.30
2019-05-29T16:12:19.008Z,2.10
2019-05-29T16:14:49.122Z,1.80
2019-05-29T16:17:19.345Z,1.98
2019-05-29T16:19:49.308Z,2.67
2019-05-29T16:22:19.180Z,2.42
2019-05-29T16:24:48.920Z,2.05
2019-05-29T16:27:18.757Z,1.85
2019-05-29T16:29:48.484Z,2.10
2019-05-29T16:32:18.344Z,1.85
2019-05-29T16:34:48.107Z,2.22
2019-05-29T16:37:17.878Z,2.15
2019-05-29T16:39:47.711Z,2.30
2019-05-29T16:42:18.066Z,1.87
2019-05-29T16:44:48.026Z,1.60
2019-05-29T16:47:18.653Z,1.60
2019-05-29T16:49:48.533Z,2.02
2019-05-29T16:52:18.842Z,2.05
2019-05-29T16:54:48.823Z,1.87
2019-05-29T16:57:19.234Z,2.08
2019-05-29T16:59:49.567Z,2.22
2019-05-29T17:02:19.702Z,1.65
2019-05-29T17:04:49.436Z,2.08
2019-05-29T17:07:20.072Z,1.50
2019-05-29T17:09:50.118Z,1.47
2019-05-29T17:12:20.505Z,1.27
2019-05-29T17:14:50.345Z,1.82
2019-05-29T17:17:20.715Z,1.45
2019-05-29T17:19:50.544Z,1.50
2019-05-29T17:22:20.994Z,1.70
2019-05-29T17:24:52.621Z,2.27
2019-05-29T17:27:23.019Z,1.50
2019-05-29T17:29:52.917Z,1.98
2019-05-29T17:32:23.195Z,2.10
2019-05-29T17:34:59.993Z,1.75
2019-05-29T17:37:29.747Z,1.60
2019-05-29T17:39:59.538Z,1.42
2019-05-29T17:42:29.507Z,1.60
2019-05-29T17:44:59.221Z,2.00
2019-05-29T17:47:29.104Z,2.00
2019-05-29T17:49:58.933Z,1.37
2019-05-29T17:52:28.858Z,1.30
2019-05-29T17:54:58.603Z,1.20
2019-05-29T17:57:28.314Z,1.32
2019-05-29T17:59:58.411Z,1.62
2019-05-29T18:02:29.023Z,1.42
2019-05-29T18:04:58.900Z,1.85
2019-05-29T18:07:28.835Z,1.47
2019-05-29T18:09:58.714Z,1.35
2019-05-29T18:12:28.409Z,1.17
2019-05-29T18:14:59.299Z,1.50
2019-05-29T18:17:29.255Z,1.67
2019-05-29T18:19:59.542Z,1.50
2019-05-29T18:22:29.320Z,1.40
2019-05-29T18:24:59.537Z,1.62
2019-05-29T18:27:29.439Z,2.05
2019-05-29T18:29:59.421Z,1.98
2019-05-29T18:32:29.295Z,1.62
2019-05-29T18:34:59.436Z,1.20
2019-05-29T18:37:29.411Z,1.75
2019-05-29T18:39:59.350Z,2.10
2019-05-29T18:42:30.135Z,1.50
2019-05-29T18:44:59.862Z,2.55
2019-05-29T18:47:29.669Z,1.60
2019-05-29T18:50:00.018Z,1.92
2019-05-29T18:52:29.981Z,1.62
2019-05-29T18:54:59.826Z,1.90
2019-05-29T18:57:29.622Z,2.08
2019-05-29T18:59:59.359Z,1.95
2019-05-29T19:02:29.579Z,3.12
2019-05-29T19:04:59.657Z,1.98
2019-05-29T19:07:29.762Z,2.80
2019-05-29T19:09:59.576Z,1.93
2019-05-29T19:12:30.086Z,2.52
2019-05-29T19:15:00.101Z,1.80
2019-05-29T19:17:32.176Z,1.85
2019-05-29T19:20:02.048Z,1.62
2019-05-29T19:22:32.693Z,1.40
2019-05-29T19:25:03.324Z,2.27
2019-05-29T19:27:40.133Z,1.90
2019-05-29T19:30:09.247Z,1.75
2019-05-29T19:32:39.052Z,3.07
2019-05-29T19:35:09.712Z,2.20
2019-05-29T19:37:40.184Z,2.27
2019-05-29T19:40:10.992Z,3.20
2019-05-29T19:42:40.846Z,2.30
2019-05-29T19:45:11.371Z,1.80
2019-05-29T19:47:41.273Z,3.27
2019-05-29T19:50:11.797Z,1.83
2019-05-29T19:52:41.705Z,3.50
2019-05-29T19:55:12.320Z,2.93
2019-05-29T19:57:55.100Z,2.47
2019-05-29T20:00:15.251Z,2.20
2019-05-29T20:02:45.144Z,1.70
2019-05-29T20:05:15.076Z,1.70
2019-05-29T20:07:46.374Z,1.43
2019-05-29T20:10:16.355Z,2.17
2019-05-29T20:12:46.181Z,2.67
2019-05-29T20:15:16.117Z,1.50
2019-05-29T20:17:45.941Z,7.10
2019-05-29T20:20:16.055Z,2.43
2019-05-29T20:22:45.832Z,2.33
2019-05-29T20:25:16.029Z,2.00
2019-05-29T20:27:45.847Z,2.00
2019-05-29T20:30:19.409Z,2.10
2019-05-29T20:32:49.292Z,1.73
2019-05-29T20:35:19.080Z,1.53
2019-05-29T20:37:49.147Z,2.03
2019-05-29T20:40:19.401Z,2.10
2019-05-29T20:42:49.195Z,1.50
2019-05-29T20:45:18.999Z,1.63
2019-05-29T20:47:48.854Z,1.77
2019-05-29T20:50:19.093Z,1.93
2019-05-29T20:52:48.859Z,1.60
2019-05-29T20:55:18.643Z,1.80
2019-05-29T20:57:48.461Z,1.63
2019-05-29T21:00:19.421Z,1.70
2019-05-29T21:02:49.275Z,1.35
2019-05-29T21:05:19.153Z,2.40
2019-05-29T21:07:48.934Z,3.17
2019-05-29T21:10:19.120Z,2.20
2019-05-29T21:12:48.947Z,2.37
2019-05-29T21:15:18.867Z,2.00
2019-05-29T21:17:48.689Z,2.10
2019-05-29T21:20:18.621Z,2.17
2019-05-29T21:22:48.377Z,2.30
2019-05-29T21:25:19.375Z,2.20
2019-05-29T21:27:49.783Z,1.63
2019-05-29T21:30:22.607Z,2.53
2019-05-29T21:32:52.487Z,2.00
2019-05-29T21:35:22.300Z,2.00
2019-05-29T21:37:52.112Z,2.50
2019-05-29T21:40:22.044Z,2.50
2019-05-29T21:42:51.789Z,2.10
2019-05-29T21:45:21.648Z,2.63
2019-05-29T21:47:51.462Z,2.27
2019-05-29T21:50:21.258Z,2.43
2019-05-29T21:52:51.082Z,2.33
2019-05-29T21:55:21.026Z,2.25
2019-05-29T21:57:50.939Z,2.30
2019-05-29T22:02:59.048Z,1.50
2019-05-29T22:05:28.865Z,2.90
2019-05-29T22:07:58.868Z,1.73
2019-05-29T22:10:28.677Z,1.63
2019-05-29T22:12:58.623Z,2.10
2019-05-29T22:15:28.358Z,2.20
2019-05-29T22:17:59.208Z,1.60
2019-05-29T22:20:29.145Z,2.47
2019-05-29T22:22:59.287Z,2.43
2019-05-29T22:25:29.228Z,2.27
2019-05-29T22:27:59.534Z,1.50
2019-05-29T22:30:29.841Z,1.87
2019-05-29T22:32:59.689Z,1.70
2019-05-29T22:35:29.449Z,1.57
2019-05-29T22:38:00.078Z,1.40
2019-05-29T22:40:30.007Z,1.40
2019-05-29T22:42:59.939Z,1.63
2019-05-29T22:45:29.737Z,1.70
2019-05-29T22:47:59.882Z,1.70
2019-05-29T22:50:29.933Z,1.80
2019-05-29T22:52:59.998Z,1.43
2019-05-29T22:55:29.944Z,2.12
2019-05-29T22:58:00.040Z,1.53
2019-05-29T23:00:30.079Z,1.30
2019-05-29T23:03:00.168Z,1.57
2019-05-29T23:05:30.175Z,1.33
2019-05-29T23:08:00.319Z,1.63
2019-05-29T23:10:31.081Z,1.23
2019-05-29T23:13:03.619Z,1.30
2019-05-29T23:15:32.308Z,1.40
2019-05-29T23:18:02.808Z,1.43
2019-05-29T23:20:33.920Z,1.30
2019-05-29T23:23:03.708Z,1.33
2019-05-29T23:25:33.494Z,1.65
2019-05-29T23:28:03.301Z,1.70
2019-05-29T23:30:33.833Z,1.67
2019-05-29T23:33:03.796Z,1.97
2019-05-29T23:35:33.495Z,1.02
2019-05-29T23:38:03.558Z,1.40
2019-05-29T23:40:33.527Z,1.60
2019-05-29T23:43:03.664Z,1.47
2019-05-29T23:45:34.821Z,1.47
2019-05-29T23:48:04.846Z,1.50
2019-05-29T23:50:34.767Z,2.17
2019-05-29T23:53:04.657Z,1.98
2019-05-29T23:55:34.322Z,1.17
2019-05-29T23:58:07.819Z,1.20
